Time;durP1;ratioP1;P1;durP2;ratioP2;P2;SDS_P1;SDS_P2;PMS_P1;PMS_P2;Temp;Humidity;BMP_temperature;BMP_pressure;BME280_temperature;BME280_humidity;BME280_pressure;Samples;Min_cycle;Max_cycle;Signal;HPM_P1;HPM_P2
2022/05/25 00:01:42;;;;;;;5.20;3.77;;;;;;;23.18;45.32;100638.64;1748907;80;21044;-82
2022/05/25 00:04:08;;;;;;;4.72;3.25;;;;;;;23.19;45.31;100640.84;1766237;80;21093;-81
2022/05/25 00:06:41;;;;;;;4.50;3.92;;;;;;;23.19;45.31;100643.05;1748716;82;21144;-81
2022/05/25 00:09:07;;;;;;;4.03;3.62;;;;;;;23.19;45.28;100643.62;1766261;81;21279;-82
2022/05/25 00:11:34;;;;;;;4.65;4.05;;;;;;;23.18;45.29;100644.19;1748751;82;21037;-81
2022/05/25 00:14:02;;;;;;;4.70;4.03;;;;;;;23.18;45.26;100656.68;1766230;80;21124;-81
2022/05/25 00:16:28;;;;;;;5.05;3.70;;;;;;;23.18;45.28;100658.06;1749210;82;21033;-82
2022/05/25 00:21:39;;;;;;;4.70;3.80;;;;;;;23.17;45.25;100652.27;1748869;82;20976;-81
2022/05/25 00:24:06;;;;;;;4.50;3.98;;;;;;;23.17;45.20;100653.66;1766098;81;21041;-82
2022/05/25 00:26:33;;;;;;;4.90;4.05;;;;;;;23.17;45.22;100652.84;1748985;82;21065;-81
2022/05/25 00:29:01;;;;;;;4.30;3.90;;;;;;;23.16;45.20;100657.61;1766170;80;20981;-82
2022/05/25 00:31:28;;;;;;;5.20;4.30;;;;;;;23.17;45.21;100660.59;1748805;82;21163;-81
2022/05/25 00:33:54;;;;;;;4.85;4.35;;;;;;;23.17;45.21;100659.78;1766277;81;21114;-81
2022/05/25 00:36:20;;;;;;;4.72;4.25;;;;;;;23.17;45.20;100661.17;1748850;82;21053;-81
2022/05/25 00:38:46;;;;;;;6.20;4.55;;;;;;;23.17;45.20;100661.17;1765919;80;21725;-82
2022/05/25 00:41:13;;;;;;;5.20;4.42;;;;;;;23.16;45.19;100659.56;1749091;82;21099;-81
2022/05/25 00:43:39;;;;;;;5.65;4.80;;;;;;;23.16;45.16;100657.61;1766060;81;21056;-81
2022/05/25 00:46:08;;;;;;;5.12;4.65;;;;;;;23.16;45.14;100658.18;1774221;79;21982;-81
2022/05/25 00:48:38;;;;;;;6.17;4.90;;;;;;;23.16;45.14;100663.73;1797055;79;21030;-82
2022/05/25 00:51:15;;;;;;;5.12;4.62;;;;;;;23.16;45.13;100672.06;1774300;80;21104;-83
2022/05/25 00:53:47;;;;;;;5.10;4.60;;;;;;;23.16;45.14;100670.67;1775884;79;21089;-82
2022/05/25 00:56:16;;;;;;;5.95;4.67;;;;;;;23.15;45.14;100674.02;1797080;79;21053;-82
2022/05/25 00:58:53;;;;;;;5.20;4.70;;;;;;;23.15;45.13;100677.36;1792342;79;21096;-82
2022/05/25 01:01:20;;;;;;;4.87;4.37;;;;;;;23.15;45.10;100680.14;1788052;79;21628;-83
2022/05/25 01:03:52;;;;;;;5.50;4.50;;;;;;;23.15;45.08;100678.18;1787978;80;21062;-83
2022/05/25 01:06:30;;;;;;;5.17;4.67;;;;;;;23.13;45.08;100669.36;1770430;80;21053;-82
2022/05/25 01:09:07;;;;;;;5.83;4.78;;;;;;;23.14;45.09;100668.80;1789905;79;21102;-82
2022/05/25 01:12:22;;;;;;;5.22;4.72;;;;;;;23.13;45.09;100671.33;1769983;80;21077;-82
2022/05/25 01:15:14;;;;;;;4.72;4.15;;;;;;;23.15;45.09;100680.14;1796074;79;21046;-81
2022/05/25 01:18:30;;;;;;;5.50;4.33;;;;;;;23.13;45.09;100683.81;1794554;79;21065;-81
2022/05/25 01:21:03;;;;;;;4.85;4.45;;;;;;;23.12;45.08;100687.19;1787429;80;21765;-82
2022/05/25 01:23:56;;;;;;;5.35;4.85;;;;;;;23.12;45.05;100686.38;1787774;80;21659;-82
2022/05/25 01:27:03;;;;;;;6.78;4.92;;;;;;;23.11;45.08;100688.33;1763338;80;21182;-81
2022/05/25 01:30:23;;;;;;;5.55;4.75;;;;;;;23.10;45.07;100685.88;1792774;79;21034;-83
2022/05/25 01:33:13;;;;;;;5.72;5.12;;;;;;;23.10;45.06;100688.66;1752645;80;21020;-83
2022/05/25 01:36:03;;;;;;;6.60;6.00;;;;;;;23.08;45.04;100690.97;1788700;79;22129;-82
2022/05/25 01:38:44;;;;;;;8.18;7.35;;;;;;;23.08;45.04;100686.81;1788035;80;21525;-82
2022/05/25 01:41:22;;;;;;;6.83;5.85;;;;;;;23.07;45.02;100686.00;1781588;80;21160;-81
2022/05/25 01:44:07;;;;;;;6.92;6.22;;;;;;;23.07;45.05;100669.34;1757177;79;21601;-82
2022/05/25 01:46:47;;;;;;;8.75;7.95;;;;;;;23.07;45.06;100665.19;1762720;81;21164;-82
2022/05/25 01:49:19;;;;;;;6.42;5.83;;;;;;;23.07;45.04;100679.05;1726978;80;21599;-82
2022/05/25 01:51:55;;;;;;;7.35;6.65;;;;;;;23.07;45.02;100674.08;1782866;80;21089;-82
2022/05/25 01:54:24;;;;;;;8.58;7.72;;;;;;;23.07;45.06;100675.47;1782542;80;21284;-82
2022/05/25 01:56:53;;;;;;;8.63;7.72;;;;;;;23.07;45.02;100680.45;1782479;80;21074;-82
2022/05/25 01:59:20;;;;;;;7.50;6.80;;;;;;;23.07;45.01;100681.02;1762026;80;21043;-81
2022/05/25 02:04:22;;;;;;;7.35;6.58;;;;;;;23.07;44.99;100681.02;1704132;82;21096;-81
2022/05/25 02:07:03;;;;;;;8.25;7.50;;;;;;;23.08;44.96;100690.97;1737631;82;21510;-81
2022/05/25 02:09:53;;;;;;;8.25;7.35;;;;;;;23.08;44.92;100686.23;1791288;79;21355;-82
2022/05/25 02:12:44;;;;;;;10.53;7.85;;;;;;;23.07;44.91;100690.16;1789659;79;20978;-81
2022/05/25 02:15:41;;;;;;;7.92;7.22;;;;;;;23.07;44.87;100695.70;1789902;80;21057;-81
2022/05/25 02:18:24;;;;;;;8.73;7.92;;;;;;;23.06;44.88;100697.42;1789954;78;21002;-82
2022/05/25 02:20:58;;;;;;;8.43;7.53;;;;;;;23.06;44.85;100694.08;1790156;79;21300;-81
2022/05/25 02:24:02;;;;;;;7.65;6.95;;;;;;;23.07;44.85;100693.50;1789685;80;21053;-82
2022/05/25 02:26:36;;;;;;;7.20;6.50;;;;;;;23.05;44.87;100693.83;1789490;78;21045;-81
2022/05/25 02:29:36;;;;;;;7.67;6.87;;;;;;;23.05;44.86;100702.16;1789174;79;21526;-81
2022/05/25 02:32:06;;;;;;;8.37;7.63;;;;;;;23.05;44.87;100702.73;1790477;79;21020;-81
2022/05/25 02:34:32;;;;;;;7.03;6.33;;;;;;;23.05;44.86;100714.64;1783325;79;21719;-82
2022/05/25 02:36:59;;;;;;;7.85;7.05;;;;;;;23.05;44.88;100713.83;1767618;80;21101;-81
2022/05/25 02:39:25;;;;;;;7.83;7.03;;;;;;;23.05;44.88;100717.41;1767941;80;21287;-81
2022/05/25 02:41:56;;;;;;;8.20;7.40;;;;;;;23.04;44.89;100707.45;1789705;80;21073;-81
2022/05/25 02:44:23;;;;;;;8.10;7.35;;;;;;;23.05;44.91;100716.03;1780227;79;21043;-82
2022/05/25 02:46:49;;;;;;;7.83;7.03;;;;;;;23.05;44.88;100722.15;1777127;79;21099;-82
2022/05/25 02:49:17;;;;;;;8.35;7.45;;;;;;;23.05;44.87;100725.74;1778508;79;21449;-82
2022/05/25 02:51:44;;;;;;;7.47;6.80;;;;;;;23.05;44.89;100731.29;1780096;80;21054;-81
2022/05/25 02:54:10;;;;;;;9.80;8.08;;;;;;;23.06;44.88;100726.55;1779847;79;20999;-82
2022/05/25 02:56:36;;;;;;;8.10;7.30;;;;;;;23.06;44.89;100727.95;1779711;79;21486;-82
2022/05/25 02:59:03;;;;;;;7.67;6.92;;;;;;;23.05;44.88;100729.91;1780054;77;21218;-81
2022/05/25 03:01:29;;;;;;;8.63;7.20;;;;;;;23.06;44.86;100730.72;1780014;79;21050;-81
2022/05/25 03:03:55;;;;;;;7.80;7.10;;;;;;;23.07;44.87;100742.06;1779744;79;21010;-81
2022/05/25 03:06:21;;;;;;;8.33;7.53;;;;;;;23.07;44.86;100737.91;1779971;79;21011;-81
2022/05/25 03:08:48;;;;;;;8.05;7.28;;;;;;;23.07;44.84;100740.68;1780003;79;21098;-81
2022/05/25 03:11:14;;;;;;;7.60;6.80;;;;;;;23.06;44.83;100744.59;1779773;79;21831;-81
2022/05/25 03:13:48;;;;;;;7.95;7.15;;;;;;;23.05;44.86;100741.00;1780037;79;21105;-82
2022/05/25 03:16:15;;;;;;;7.55;6.83;;;;;;;23.06;44.83;100742.64;1779747;79;21077;-82
2022/05/25 03:18:43;;;;;;;8.23;7.17;;;;;;;23.05;44.85;100751.28;1751111;80;21082;-82
2022/05/25 03:21:09;;;;;;;7.90;7.17;;;;;;;23.06;44.86;100753.73;1780218;80;21070;-82
2022/05/25 03:23:36;;;;;;;7.58;6.87;;;;;;;23.05;44.82;100747.94;1779839;79;21501;-81
2022/05/25 03:26:03;;;;;;;7.05;6.45;;;;;;;23.06;44.81;100745.98;1779460;79;21062;-82
2022/05/25 03:28:29;;;;;;;8.38;7.45;;;;;;;23.05;44.82;100751.28;1779862;79;21047;-81
2022/05/25 03:30:56;;;;;;;7.50;6.58;;;;;;;23.06;44.78;100758.47;1779768;79;21470;-81
2022/05/25 03:33:22;;;;;;;8.33;6.75;;;;;;;23.05;44.76;100763.20;1779828;79;21057;-81
2022/05/25 03:35:48;;;;;;;8.30;6.45;;;;;;;23.05;44.79;100763.20;1779921;79;21233;-82
2022/05/25 03:38:15;;;;;;;7.20;6.50;;;;;;;23.05;44.75;100767.36;1779753;79;21487;-81
2022/05/25 03:40:41;;;;;;;7.58;6.05;;;;;;;23.06;44.76;100770.95;1779764;79;21089;-81
2022/05/25 03:43:11;;;;;;;6.15;5.55;;;;;;;23.05;44.75;100761.00;1784286;77;21016;-81
2022/05/25 03:45:38;;;;;;;6.53;5.78;;;;;;;23.05;44.75;100764.59;1800477;78;21044;-81
2022/05/25 03:48:07;;;;;;;6.70;6.10;;;;;;;23.06;44.74;100776.51;1795732;78;20987;-81
2022/05/25 03:50:36;;;;;;;6.62;5.92;;;;;;;23.05;44.73;100777.08;1795952;78;21028;-83
2022/05/25 03:53:02;;;;;;;6.08;5.47;;;;;;;23.06;44.71;100784.83;1795253;78;21024;-82
2022/05/25 03:55:28;;;;;;;6.47;5.87;;;;;;;23.05;44.71;100785.97;1795773;78;21009;-82
2022/05/25 03:57:55;;;;;;;6.97;6.28;;;;;;;23.05;44.68;100785.97;1796041;78;21608;-82
2022/05/25 04:00:21;;;;;;;6.62;6.00;;;;;;;23.06;44.68;100789.81;1797823;77;21064;-81
2022/05/25 04:02:47;;;;;;;7.20;6.50;;;;;;;23.06;44.69;100788.99;1759587;81;21119;-82
2022/05/25 04:05:14;;;;;;;8.63;5.80;;;;;;;23.04;44.68;100794.87;1742321;81;21111;-82
2022/05/25 04:07:44;;;;;;;7.55;5.72;;;;;;;23.04;44.67;100798.24;1753902;81;21044;-82
2022/05/25 04:10:15;;;;;;;7.87;5.80;;;;;;;23.03;44.67;100783.55;1755940;80;21164;-82
2022/05/25 04:12:42;;;;;;;6.80;5.95;;;;;;;23.04;44.66;100794.87;1772626;80;21385;-82
2022/05/25 04:15:11;;;;;;;7.08;5.17;;;;;;;23.04;44.66;100788.53;1775517;79;21038;-82
2022/05/25 04:17:37;;;;;;;6.62;5.50;;;;;;;23.04;44.68;100801.02;1775945;80;21072;-83
2022/05/25 04:20:10;;;;;;;6.65;5.08;;;;;;;23.03;44.68;100791.06;1775745;80;21070;-81
2022/05/25 04:22:36;;;;;;;6.70;4.92;;;;;;;23.01;44.68;100791.38;1775724;80;21126;-82
2022/05/25 04:25:08;;;;;;;8.95;5.05;;;;;;;23.00;44.70;100795.30;1775598;80;21646;-81
2022/05/25 04:27:35;;;;;;;7.78;4.75;;;;;;;22.99;44.71;100804.80;1775400;80;21101;-84
2022/05/25 04:30:01;;;;;;;5.12;4.30;;;;;;;22.97;44.73;100801.52;1775627;80;21097;-83
2022/05/25 04:32:27;;;;;;;5.53;3.98;;;;;;;22.94;44.71;100804.16;1774149;79;21061;-83
2022/05/25 04:34:56;;;;;;;8.23;4.40;;;;;;;22.92;44.64;100806.44;1823061;76;21079;-83
2022/05/25 04:40:08;;;;;;;5.97;4.25;;;;;;;22.87;44.55;100790.81;1814425;78;21037;-83
2022/05/25 04:42:40;;;;;;;9.00;3.75;;;;;;;22.86;44.44;100789.75;1831837;76;21570;-83
2022/05/25 04:45:09;;;;;;;11.03;3.90;;;;;;;22.83;44.44;100788.44;1803762;77;21508;-83
2022/05/25 04:47:35;;;;;;;5.22;2.95;;;;;;;22.82;44.41;100795.73;1815541;78;21479;-82
2022/05/25 04:50:01;;;;;;;8.48;2.90;;;;;;;22.81;44.39;100796.87;1819992;76;21120;-82
2022/05/25 04:52:28;;;;;;;6.67;3.02;;;;;;;22.78;44.35;100803.91;1828013;78;21538;-85
2022/05/25 04:54:54;;;;;;;7.37;3.22;;;;;;;22.76;44.38;100808.39;1812474;77;21152;-87
2022/05/25 04:57:22;;;;;;;6.70;3.33;;;;;;;22.69;44.36;100810.05;1817738;77;21080;-80
2022/05/25 04:59:55;;;;;;;9.55;2.98;;;;;;;22.64;44.45;100803.27;1818938;77;21080;-85
2022/05/25 05:02:21;;;;;;;14.18;3.12;;;;;;;22.61;44.58;100792.27;1786336;77;21913;-83
2022/05/25 05:04:48;;;;;;;9.03;3.00;;;;;;;22.62;44.66;100792.49;1789787;77;21091;-86
2022/05/25 05:07:14;;;;;;;11.08;3.25;;;;;;;22.63;44.63;100790.53;1787660;79;21263;-83
2022/05/25 05:09:42;;;;;;;6.00;3.17;;;;;;;22.64;44.68;100793.55;1794439;77;21867;-87
2022/05/25 05:12:09;;;;;;;15.23;3.37;;;;;;;22.66;44.71;100789.89;1831448;76;21408;-85
2022/05/25 05:14:46;;;;;;;7.28;3.40;;;;;;;22.66;44.73;100790.68;1824801;76;21073;-85
2022/05/25 05:17:09;;;;;;;5.47;2.52;;;;;;;22.68;44.74;100801.45;1823468;76;21858;-87
2022/05/25 05:19:35;;;;;;;10.65;3.58;;;;;;;22.71;44.77;100811.34;1829034;76;21062;-85
2022/05/25 05:22:02;;;;;;;10.05;3.60;;;;;;;22.75;44.79;100816.45;1824247;75;21055;-83
2022/05/25 05:24:36;;;;;;;12.98;3.85;;;;;;;22.75;44.79;100812.30;1811810;77;21535;-86
2022/05/25 05:27:04;;;;;;;13.13;5.17;;;;;;;22.79;44.84;100817.20;1835318;76;21629;-85
2022/05/25 05:29:30;;;;;;;9.95;4.53;;;;;;;22.81;44.90;100819.06;1824829;76;21017;-82
2022/05/25 05:31:58;;;;;;;12.35;6.05;;;;;;;22.82;44.92;100817.34;1829472;76;21040;-81
2022/05/25 05:34:28;;;;;;;11.78;5.47;;;;;;;22.83;44.96;100813.41;1808973;77;21036;-81
2022/05/25 05:37:01;;;;;;;8.88;6.40;;;;;;;22.86;45.01;100820.27;1829348;76;21138;-77
2022/05/25 05:39:36;;;;;;;20.92;8.20;;;;;;;22.87;45.04;100820.52;1777844;80;21275;-79
2022/05/25 05:42:10;;;;;;;12.23;8.48;;;;;;;22.89;45.04;100816.82;1823389;76;21547;-85
2022/05/25 05:44:44;;;;;;;17.02;8.35;;;;;;;22.90;45.05;100822.05;1775967;78;22350;-80
2022/05/25 05:47:15;;;;;;;16.23;8.08;;;;;;;22.90;45.09;100817.89;1808209;76;20996;-82
2022/05/25 05:49:47;;;;;;;13.70;8.55;;;;;;;22.91;45.21;100818.70;1832852;77;21538;-80
2022/05/25 05:52:14;;;;;;;12.35;7.47;;;;;;;22.91;45.35;100825.64;1835574;76;21714;-82
2022/05/25 05:54:41;;;;;;;22.32;7.30;;;;;;;22.92;45.49;100825.86;1833915;76;21045;-83
2022/05/25 05:57:07;;;;;;;17.87;6.42;;;;;;;22.92;45.62;100832.22;1838318;76;21121;-82
2022/05/25 05:59:34;;;;;;;14.03;6.03;;;;;;;22.92;45.74;100831.41;1829419;76;21027;-83
2022/05/25 06:02:01;;;;;;;17.73;5.37;;;;;;;22.92;45.90;100835.56;1827152;76;21135;-82
2022/05/25 06:04:27;;;;;;;14.23;5.83;;;;;;;22.93;46.04;100839.41;1824725;77;21688;-80
2022/05/25 06:06:56;;;;;;;31.50;6.10;;;;;;;22.93;46.18;100839.97;1826398;76;21143;-82
2022/05/25 06:09:23;;;;;;;21.55;7.50;;;;;;;22.93;46.34;100840.80;1822392;76;21053;-78
2022/05/25 06:11:49;;;;;;;29.00;16.23;;;;;;;22.96;46.41;100845.67;1787118;79;21085;-77
2022/05/25 06:14:15;;;;;;;31.10;17.90;;;;;;;22.97;46.41;100847.30;1752138;79;21072;-80
2022/05/25 06:19:27;;;;;;;23.07;14.87;;;;;;;22.99;46.61;100849.76;1818184;76;21098;-77
2022/05/25 06:22:07;;;;;;;24.50;14.15;;;;;;;23.01;46.62;100850.22;1822672;76;21135;-79
2022/05/25 06:24:42;;;;;;;20.23;15.58;;;;;;;23.02;46.63;100859.61;1785486;79;21082;-79
2022/05/25 06:27:08;;;;;;;22.67;16.07;;;;;;;23.04;46.64;100868.41;1783515;79;21060;-79
2022/05/25 06:29:39;;;;;;;23.50;17.27;;;;;;;23.05;46.62;100860.33;1794678;78;21103;-82
2022/05/25 06:32:06;;;;;;;;;;;;;;;23.06;46.62;100856.41;1798414;78;21108;-80
2022/05/25 06:34:33;;;;;;;19.40;15.53;;;;;;;23.06;46.69;100856.98;1762177;79;20242;-77
2022/05/25 06:36:59;;;;;;;22.42;17.42;;;;;;;23.06;46.60;100856.98;1828514;77;21060;-80
2022/05/25 06:39:27;;;;;;;25.45;18.48;;;;;;;23.06;46.59;100852.25;1844567;77;21064;-78
2022/05/25 06:41:53;;;;;;;20.82;17.60;;;;;;;23.07;46.65;100857.23;1812281;78;21103;-77
2022/05/25 06:44:20;;;;;;;30.77;18.48;;;;;;;23.08;46.66;100851.93;1827565;76;21065;-77
2022/05/25 06:46:47;;;;;;;27.73;19.37;;;;;;;23.09;46.64;100852.96;1819912;76;21605;-78
2022/05/25 06:49:14;;;;;;;28.02;17.45;;;;;;;23.10;46.65;100851.00;1839574;76;21210;-83
2022/05/25 06:51:41;;;;;;;31.15;17.17;;;;;;;23.09;46.78;100844.64;1839616;76;21630;-84
2022/05/25 06:54:07;;;;;;;19.10;12.82;;;;;;;23.09;46.88;100848.80;1822494;76;21699;-82
2022/05/25 06:56:34;;;;;;;18.45;12.43;;;;;;;23.09;47.06;100843.81;1827012;76;21626;-83
2022/05/25 06:59:01;;;;;;;30.40;9.55;;;;;;;23.11;47.24;100844.31;1823945;76;21645;-84
2022/05/25 07:01:27;;;;;;;25.90;8.03;;;;;;;23.13;47.43;100836.45;1822383;76;21024;-79
2022/05/25 07:03:55;;;;;;;20.90;9.83;;;;;;;23.15;47.63;100846.09;1839497;76;21037;-81
2022/05/25 07:06:22;;;;;;;22.85;9.23;;;;;;;23.16;47.75;100843.56;1828142;76;21538;-81
2022/05/25 07:08:49;;;;;;;24.82;10.80;;;;;;;23.17;47.81;100841.57;1829718;76;21945;-80
2022/05/25 07:11:17;;;;;;;21.23;9.93;;;;;;;23.17;47.87;100839.62;1826815;76;21083;-82
2022/05/25 07:13:44;;;;;;;26.42;10.35;;;;;;;23.18;47.90;100839.05;1828211;77;21080;-83
2022/05/25 07:16:13;;;;;;;32.75;17.77;;;;;;;23.18;47.91;100832.92;1831965;76;21029;-77
2022/05/25 07:18:40;;;;;;;11.05;7.75;;;;;;;23.20;47.95;100833.98;1831283;76;21124;-82
2022/05/25 07:21:13;;;;;;;18.00;10.45;;;;;;;23.19;47.99;100837.91;1831872;76;21516;-78
2022/05/25 07:23:41;;;;;;;15.30;9.70;;;;;;;23.22;48.07;100842.78;1835848;76;21073;-78
2022/05/25 07:26:11;;;;;;;23.90;11.80;;;;;;;23.22;48.12;100848.33;1830196;77;21033;-78
2022/05/25 07:28:37;;;;;;;15.48;10.55;;;;;;;23.23;48.13;100852.17;1808536;76;21649;-76
2022/05/25 07:31:18;;;;;;;22.60;11.50;;;;;;;23.26;48.14;100848.47;1739503;79;21927;-84
2022/05/25 07:33:47;;;;;;;19.07;12.13;;;;;;;23.27;48.13;100850.11;1779138;77;21100;-86
2022/05/25 07:36:13;;;;;;;24.25;12.07;;;;;;;23.27;48.12;100855.66;1739250;80;21071;-80
2022/05/25 07:38:45;;;;;;;16.93;12.03;;;;;;;23.27;48.12;100859.25;1741251;79;21054;-81
2022/05/25 07:41:11;;;;;;;24.37;12.30;;;;;;;23.27;48.15;100864.80;1763357;78;21198;-77
2022/05/25 07:43:38;;;;;;;20.15;11.43;;;;;;;23.27;48.17;100866.77;1753477;79;21123;-81
2022/05/25 07:46:04;;;;;;;23.18;12.00;;;;;;;23.26;48.14;100865.13;1757383;78;21121;-84
2022/05/25 07:48:32;;;;;;;20.72;10.95;;;;;;;23.26;48.25;100868.72;1811586;76;21064;-83
2022/05/25 07:50:59;;;;;;;21.23;10.30;;;;;;;23.26;48.32;100863.16;1832961;76;21002;-83
2022/05/25 07:56:13;;;;;;;23.75;8.63;;;;;;;23.28;48.79;100870.60;1824712;77;21669;-85
2022/05/25 07:58:42;;;;;;;23.60;7.60;;;;;;;23.28;49.11;100865.05;1842688;76;21025;-82
2022/05/25 08:01:16;;;;;;;23.40;8.20;;;;;;;23.31;49.71;100867.72;1813679;76;21017;-84
2022/05/25 08:06:28;;;;;;;21.95;8.88;;;;;;;23.33;49.74;100870.98;1827648;76;21927;-76
2022/05/25 08:09:01;;;;;;;16.00;7.97;;;;;;;23.32;49.84;100866.01;1805048;76;21391;-78
2022/05/25 08:11:29;;;;;;;22.87;8.75;;;;;;;23.33;49.84;100866.25;1817845;75;21028;-77
2022/05/25 08:13:57;;;;;;;17.20;8.00;;;;;;;23.35;49.89;100870.87;1818030;77;21076;-83
2022/05/25 08:16:23;;;;;;;14.28;8.58;;;;;;;23.34;49.99;100869.24;1803117;77;21037;-83
2022/05/25 08:18:49;;;;;;;18.20;8.48;;;;;;;23.35;49.95;100874.23;1823226;76;21485;-82
2022/05/25 08:21:15;;;;;;;24.90;8.55;;;;;;;23.36;50.01;100869.73;1817315;76;21329;-81
2022/05/25 08:23:41;;;;;;;21.52;7.47;;;;;;;23.36;50.08;100871.13;1814477;76;21654;-80
2022/05/25 08:26:10;;;;;;;20.95;8.13;;;;;;;23.38;50.15;100864.65;1748077;76;21117;-79
2022/05/25 08:28:38;;;;;;;25.43;6.90;;;;;;;23.39;50.13;100862.12;1813053;76;21053;-79
2022/05/25 08:31:05;;;;;;;12.90;7.42;;;;;;;23.39;50.18;100860.73;1826054;76;21068;-79
2022/05/25 08:33:38;;;;;;;17.02;6.28;;;;;;;23.41;50.21;100864.00;1817942;76;21146;-79
2022/05/25 08:36:04;;;;;;;16.23;6.45;;;;;;;23.43;50.24;100863.11;1807904;76;21639;-79
2022/05/25 08:38:31;;;;;;;18.60;7.95;;;;;;;23.44;50.30;100857.80;1770124;78;21147;-80
2022/05/25 08:40:58;;;;;;;15.15;7.78;;;;;;;23.46;50.38;100861.07;1767606;78;21092;-78
2022/05/25 08:43:47;;;;;;;17.80;7.40;;;;;;;23.47;50.38;100861.86;1814787;76;21122;-81
2022/05/25 08:46:18;;;;;;;21.52;7.78;;;;;;;23.47;50.52;100859.08;1812202;76;21161;-77
2022/05/25 08:48:47;;;;;;;18.35;6.50;;;;;;;23.45;50.55;100861.39;1814326;76;21124;-76
2022/05/25 08:51:17;;;;;;;19.40;6.67;;;;;;;23.46;50.73;100868.58;1817548;76;21067;-79
2022/05/25 08:53:44;;;;;;;22.52;6.58;;;;;;;23.46;50.84;100868.02;1813731;76;21105;-78
2022/05/25 08:56:49;;;;;;;13.65;5.15;;;;;;;23.48;50.98;100874.03;1817957;76;21421;-77
2022/05/25 08:59:38;;;;;;;18.85;5.17;;;;;;;23.48;51.01;100872.64;1809656;77;21894;-81
2022/05/25 09:02:28;;;;;;;20.57;5.92;;;;;;;23.49;51.07;100882.61;1810760;77;21017;-77
2022/05/25 09:05:17;;;;;;;18.57;5.40;;;;;;;23.49;51.12;100877.63;1813754;76;21553;-80
2022/05/25 09:08:01;;;;;;;23.45;5.78;;;;;;;23.48;51.09;100882.93;1792094;76;21729;-77
2022/05/25 09:10:29;;;;;;;8.90;4.58;;;;;;;23.47;51.12;100886.28;1808780;77;21022;-77
2022/05/25 09:13:16;;;;;;;11.45;5.42;;;;;;;23.45;51.07;100884.42;1810977;77;21171;-78
2022/05/25 09:16:27;;;;;;;12.70;4.72;;;;;;;23.47;51.06;100890.44;1813472;76;21068;-80
2022/05/25 09:18:17;;;;;;;12.33;4.60;;;;;;;23.49;51.18;100888.73;1792352;77;21028;-77
2022/05/25 09:20:46;;;;;;;12.10;5.28;;;;;;;23.47;51.04;100884.07;1807459;77;21075;-78
2022/05/25 09:23:12;;;;;;;11.65;5.35;;;;;;;23.48;51.10;100887.09;1804806;76;21087;-76
2022/05/25 09:25:38;;;;;;;12.05;5.60;;;;;;;23.47;51.19;100882.68;1806079;76;22302;-78
2022/05/25 09:28:18;;;;;;;15.50;5.78;;;;;;;23.47;51.22;100883.50;1779094;77;21036;-77
2022/05/25 09:30:46;;;;;;;16.85;5.42;;;;;;;23.47;51.26;100890.44;1801702;78;21148;-79
2022/05/25 09:33:37;;;;;;;14.98;5.60;;;;;;;23.47;51.22;100882.11;1813678;78;21096;-76
2022/05/25 09:36:26;;;;;;;13.75;4.85;;;;;;;23.46;51.23;100879.12;1813897;77;21077;-77
2022/05/25 09:39:02;;;;;;;8.65;4.90;;;;;;;23.45;51.17;100878.88;1816065;76;21092;-78
2022/05/25 09:41:31;;;;;;;10.23;4.20;;;;;;;23.46;51.02;100886.06;1805199;77;21022;-78
2022/05/25 09:43:58;;;;;;;15.25;5.30;;;;;;;23.47;51.06;100890.44;1811553;76;21032;-78
2022/05/25 09:46:38;;;;;;;8.18;4.60;;;;;;;23.48;51.13;100892.65;1808410;76;21033;-78
2022/05/25 09:49:07;;;;;;;13.10;4.72;;;;;;;23.49;51.11;100895.10;1819648;76;21021;-77
2022/05/25 09:51:46;;;;;;;11.80;4.85;;;;;;;23.49;51.13;100886.77;1831453;76;21387;-77
2022/05/25 09:54:25;;;;;;;5.35;3.40;;;;;;;23.50;51.18;100879.26;1793610;77;21193;-76
2022/05/25 09:57:07;;;;;;;15.32;4.78;;;;;;;23.49;50.96;100884.56;1811862;76;21131;-75
2022/05/25 09:59:44;;;;;;;14.53;3.83;;;;;;;23.51;50.87;100880.86;1748049;79;21235;-77
2022/05/25 10:02:52;;;;;;;14.60;4.20;;;;;;;23.52;50.92;100870.00;1807294;76;21084;-78
2022/05/25 10:05:25;;;;;;;16.50;4.33;;;;;;;23.52;50.91;100868.61;1811395;76;21649;-77
2022/05/25 10:08:04;;;;;;;5.80;3.27;;;;;;;23.55;50.69;100863.19;1817226;77;21017;-79
2022/05/25 10:10:33;;;;;;;9.60;3.60;;;;;;;23.55;50.68;100863.80;1812761;78;21053;-81
2022/05/25 10:13:07;;;;;;;8.15;3.17;;;;;;;23.54;50.56;100858.81;1740705;80;21316;-77
2022/05/25 10:15:35;;;;;;;10.08;3.60;;;;;;;23.55;50.48;100865.97;1739706;80;21125;-78
2022/05/25 10:18:04;;;;;;;11.20;3.62;;;;;;;23.53;50.56;100868.29;1752420;80;21142;-80
2022/05/25 10:20:47;;;;;;;15.45;3.72;;;;;;;23.53;50.67;100869.67;1759571;79;21401;-76
2022/05/25 10:23:24;;;;;;;10.43;3.62;;;;;;;23.53;50.74;100863.30;1808186;78;21912;-77
2022/05/25 10:26:19;;;;;;;9.68;3.50;;;;;;;23.52;50.71;100861.09;1820345;76;21569;-79
2022/05/25 10:28:49;;;;;;;7.62;3.40;;;;;;;23.51;50.72;100855.30;1853124;76;21122;-78
2022/05/25 10:37:26;;;;;;;7.40;3.50;;;;;;;23.50;50.76;100849.53;1771957;79;21171;-79
2022/05/25 10:39:59;;;;;;;9.95;3.70;;;;;;;23.49;50.75;100842.34;1742795;81;21530;-79
2022/05/25 10:42:44;;;;;;;6.53;3.20;;;;;;;23.49;50.77;100838.17;1748740;81;21523;-78
2022/05/25 10:45:22;;;;;;;9.65;3.50;;;;;;;23.49;50.78;100838.17;1742171;81;21388;-78
2022/05/25 10:48:12;;;;;;;10.78;3.87;;;;;;;23.49;50.75;100829.84;1742599;80;21662;-79
2022/05/25 10:50:59;;;;;;;7.15;3.25;;;;;;;23.50;50.52;100825.11;1817282;76;21061;-80
2022/05/25 10:57:28;;;;;;;10.25;3.25;;;;;;;23.48;50.37;100822.66;1823343;78;21208;-78
2022/05/25 11:00:16;;;;;;;12.73;3.37;;;;;;;23.50;50.37;100824.53;1813928;77;21125;-80
2022/05/25 11:03:38;;;;;;;11.43;3.45;;;;;;;23.53;50.77;100812.75;1797291;78;21045;-80
2022/05/25 11:06:31;;;;;;;11.22;3.58;;;;;;;23.55;50.79;100813.20;1802599;78;21076;-79
2022/05/25 11:09:36;;;;;;;6.53;3.15;;;;;;;23.56;50.79;100800.14;1811654;76;21532;-75
2022/05/25 11:12:48;;;;;;;6.83;3.50;;;;;;;23.57;50.93;100790.66;1811835;78;21677;-76
2022/05/25 11:15:47;;;;;;;12.07;3.55;;;;;;;23.58;50.71;100790.91;1807682;77;21160;-77
2022/05/25 11:18:38;;;;;;;6.62;2.70;;;;;;;23.58;50.80;100786.73;1833925;77;21034;-78
2022/05/25 11:21:40;;;;;;;8.00;3.00;;;;;;;23.57;50.70;100786.50;1815689;77;21315;-76
2022/05/25 11:24:38;;;;;;;9.00;3.30;;;;;;;23.58;50.78;100776.45;1786195;78;21073;-75
2022/05/25 11:27:16;;;;;;;7.65;3.02;;;;;;;23.57;50.76;100768.44;1814573;77;21083;-75
2022/05/25 11:30:18;;;;;;;8.48;3.30;;;;;;;23.56;50.84;100767.62;1804789;76;21285;-77
2022/05/25 11:33:23;;;;;;;4.72;2.75;;;;;;;23.56;50.94;100766.23;1812021;77;21898;-76
2022/05/25 11:35:59;;;;;;;6.97;3.45;;;;;;;23.56;50.94;100763.46;1811348;77;21451;-78
2022/05/25 11:38:49;;;;;;;6.03;3.17;;;;;;;23.55;50.90;100763.22;1818861;77;21115;-74
2022/05/25 11:41:40;;;;;;;7.03;3.05;;;;;;;23.55;50.88;100759.05;1799893;78;21108;-76
2022/05/25 11:44:33;;;;;;;7.20;3.62;;;;;;;23.55;50.80;100757.66;1807366;76;21535;-77
2022/05/25 11:47:17;;;;;;;6.65;2.65;;;;;;;23.55;50.84;100759.05;1734780;82;21109;-74
2022/05/25 11:50:04;;;;;;;6.97;2.98;;;;;;;23.54;50.89;100763.00;1685048;84;21120;-74
2022/05/25 11:53:00;;;;;;;9.83;3.60;;;;;;;23.54;50.88;100761.61;1772763;77;21626;-76
2022/05/25 11:55:40;;;;;;;9.90;2.80;;;;;;;23.57;50.95;100761.50;1810623;78;21031;-75
2022/05/25 11:58:45;;;;;;;10.05;2.83;;;;;;;23.59;50.98;100762.77;1820357;76;21627;-74
2022/05/25 12:01:32;;;;;;;9.20;4.33;;;;;;;23.62;50.93;100757.95;1745747;80;21520;-76
2022/05/25 12:04:29;;;;;;;13.75;3.50;;;;;;;23.65;50.94;100755.87;1747559;80;21576;-76
2022/05/25 12:07:28;;;;;;;10.85;3.92;;;;;;;23.68;51.01;100759.14;1736916;80;21126;-75
2022/05/25 12:10:18;;;;;;;7.25;3.72;;;;;;;23.68;51.02;100757.97;1752341;80;21103;-75
2022/05/25 12:12:53;;;;;;;12.00;3.70;;;;;;;23.69;51.05;100756.00;1759666;79;21095;-74
2022/05/25 12:15:24;;;;;;;12.68;3.55;;;;;;;23.70;51.08;100757.64;1762893;79;21575;-75
2022/05/25 12:18:20;;;;;;;6.65;3.70;;;;;;;23.71;51.16;100760.66;1750453;80;21018;-81
2022/05/25 12:21:04;;;;;;;5.83;3.30;;;;;;;23.72;51.23;100762.86;1770355;80;21026;-75